sensor_id;sensor_type;location;lat;lon;timestamp;temperature;humidity
5617;DHT22;2830;50.656;7.568;2022-11-02T00:00:39;10.20;99.90
5617;DHT22;2830;50.656;7.568;2022-11-02T00:03:06;10.20;99.90
5617;DHT22;2830;50.656;7.568;2022-11-02T00:05:34;10.20;99.90
5617;DHT22;2830;50.656;7.568;2022-11-02T00:08:01;10.30;99.90
5617;DHT22;2830;50.656;7.568;2022-11-02T00:10:28;10.30;99.90
5617;DHT22;2830;50.656;7.568;2022-11-02T00:12:58;10.30;99.90
5617;DHT22;2830;50.656;7.568;2022-11-02T00:15:27;10.40;99.90
5617;DHT22;2830;50.656;7.568;2022-11-02T00:17:59;10.40;99.90
5617;DHT22;2830;50.656;7.568;2022-11-02T00:20:27;10.50;99.90
5617;DHT22;2830;50.656;7.568;2022-11-02T00:22:57;10.50;99.90
5617;DHT22;2830;50.656;7.568;2022-11-02T00:25:25;10.60;99.90
5617;DHT22;2830;50.656;7.568;2022-11-02T00:27:52;10.60;99.90
5617;DHT22;2830;50.656;7.568;2022-11-02T00:30:19;10.60;99.90
5617;DHT22;2830;50.656;7.568;2022-11-02T00:32:46;10.60;99.90
5617;DHT22;2830;50.656;7.568;2022-11-02T00:35:12;10.70;99.90
5617;DHT22;2830;50.656;7.568;2022-11-02T00:37:39;10.60;99.90
5617;DHT22;2830;50.656;7.568;2022-11-02T00:40:06;10.60;99.90
5617;DHT22;2830;50.656;7.568;2022-11-02T00:42:33;10.60;99.90
5617;DHT22;2830;50.656;7.568;2022-11-02T00:45:00;10.60;99.90
5617;DHT22;2830;50.656;7.568;2022-11-02T00:47:26;10.60;99.90
5617;DHT22;2830;50.656;7.568;2022-11-02T00:49:53;10.60;99.90
5617;DHT22;2830;50.656;7.568;2022-11-02T00:52:20;10.50;99.90
5617;DHT22;2830;50.656;7.568;2022-11-02T00:54:46;10.60;99.90
5617;DHT22;2830;50.656;7.568;2022-11-02T00:57:13;10.70;99.90
5617;DHT22;2830;50.656;7.568;2022-11-02T00:59:39;10.80;99.90
5617;DHT22;2830;50.656;7.568;2022-11-02T01:02:06;10.90;99.90
5617;DHT22;2830;50.656;7.568;2022-11-02T01:04:33;10.90;99.90
5617;DHT22;2830;50.656;7.568;2022-11-02T01:07:01;11.00;99.90
5617;DHT22;2830;50.656;7.568;2022-11-02T01:09:34;10.90;99.90
5617;DHT22;2830;50.656;7.568;2022-11-02T01:12:01;10.90;99.90
5617;DHT22;2830;50.656;7.568;2022-11-02T01:14:28;10.90;99.90
5617;DHT22;2830;50.656;7.568;2022-11-02T01:16:54;10.90;99.90
5617;DHT22;2830;50.656;7.568;2022-11-02T01:19:24;10.90;99.90
5617;DHT22;2830;50.656;7.568;2022-11-02T01:21:51;10.90;99.90
5617;DHT22;2830;50.656;7.568;2022-11-02T01:24:18;10.90;99.90
5617;DHT22;2830;50.656;7.568;2022-11-02T01:26:49;10.90;99.90
5617;DHT22;2830;50.656;7.568;2022-11-02T01:29:16;10.90;99.90
5617;DHT22;2830;50.656;7.568;2022-11-02T01:31:43;10.90;99.90
5617;DHT22;2830;50.656;7.568;2022-11-02T01:34:10;10.90;99.90
5617;DHT22;2830;50.656;7.568;2022-11-02T01:36:37;11.00;99.90
5617;DHT22;2830;50.656;7.568;2022-11-02T01:39:04;11.00;99.90
5617;DHT22;2830;50.656;7.568;2022-11-02T01:41:31;11.10;99.90
5617;DHT22;2830;50.656;7.568;2022-11-02T01:44:01;11.10;99.90
5617;DHT22;2830;50.656;7.568;2022-11-02T01:49:22;11.20;99.90
5617;DHT22;2830;50.656;7.568;2022-11-02T01:54:26;11.20;99.90
5617;DHT22;2830;50.656;7.568;2022-11-02T01:56:59;11.20;99.90
5617;DHT22;2830;50.656;7.568;2022-11-02T01:59:42;11.20;99.90
5617;DHT22;2830;50.656;7.568;2022-11-02T02:02:16;11.20;99.90
5617;DHT22;2830;50.656;7.568;2022-11-02T02:04:48;11.20;99.90
5617;DHT22;2830;50.656;7.568;2022-11-02T02:07:15;11.30;99.90
5617;DHT22;2830;50.656;7.568;2022-11-02T02:09:42;11.30;99.90
5617;DHT22;2830;50.656;7.568;2022-11-02T02:12:15;11.30;99.90
5617;DHT22;2830;50.656;7.568;2022-11-02T02:14:42;11.40;99.90
5617;DHT22;2830;50.656;7.568;2022-11-02T02:17:15;11.30;99.90
5617;DHT22;2830;50.656;7.568;2022-11-02T02:23:05;11.40;99.90
5617;DHT22;2830;50.656;7.568;2022-11-02T02:25:50;11.50;99.90
5617;DHT22;2830;50.656;7.568;2022-11-02T02:28:39;11.60;99.90
5617;DHT22;2830;50.656;7.568;2022-11-02T02:31:44;11.60;99.90
5617;DHT22;2830;50.656;7.568;2022-11-02T02:34:25;11.60;99.90
5617;DHT22;2830;50.656;7.568;2022-11-02T02:42:39;11.70;99.90
5617;DHT22;2830;50.656;7.568;2022-11-02T02:45:34;11.70;99.90
5617;DHT22;2830;50.656;7.568;2022-11-02T02:48:06;11.70;99.90
5617;DHT22;2830;50.656;7.568;2022-11-02T02:50:40;11.70;99.90
5617;DHT22;2830;50.656;7.568;2022-11-02T02:53:10;11.70;99.90
5617;DHT22;2830;50.656;7.568;2022-11-02T02:55:42;11.70;99.90
5617;DHT22;2830;50.656;7.568;2022-11-02T02:58:19;11.70;99.90
5617;DHT22;2830;50.656;7.568;2022-11-02T03:00:46;11.80;99.90
5617;DHT22;2830;50.656;7.568;2022-11-02T03:03:18;11.70;99.90
5617;DHT22;2830;50.656;7.568;2022-11-02T03:06:03;11.70;99.90
5617;DHT22;2830;50.656;7.568;2022-11-02T03:08:30;11.70;99.90
5617;DHT22;2830;50.656;7.568;2022-11-02T03:11:15;11.60;99.90
5617;DHT22;2830;50.656;7.568;2022-11-02T03:17:02;11.50;99.90
5617;DHT22;2830;50.656;7.568;2022-11-02T03:19:43;11.50;99.90
5617;DHT22;2830;50.656;7.568;2022-11-02T03:22:31;11.50;99.90
5617;DHT22;2830;50.656;7.568;2022-11-02T03:28:09;11.30;99.90
5617;DHT22;2830;50.656;7.568;2022-11-02T03:30:53;11.30;99.90
5617;DHT22;2830;50.656;7.568;2022-11-02T03:33:29;11.20;99.90
5617;DHT22;2830;50.656;7.568;2022-11-02T03:36:08;11.10;99.90
5617;DHT22;2830;50.656;7.568;2022-11-02T03:41:13;11.00;99.90
5617;DHT22;2830;50.656;7.568;2022-11-02T03:43:41;10.90;99.90
5617;DHT22;2830;50.656;7.568;2022-11-02T03:46:09;10.80;99.90
5617;DHT22;2830;50.656;7.568;2022-11-02T03:48:44;10.70;99.90
5617;DHT22;2830;50.656;7.568;2022-11-02T03:51:14;10.70;99.90
5617;DHT22;2830;50.656;7.568;2022-11-02T03:53:57;10.60;99.90
5617;DHT22;2830;50.656;7.568;2022-11-02T03:56:34;10.50;99.90
5617;DHT22;2830;50.656;7.568;2022-11-02T03:59:02;10.50;99.90
5617;DHT22;2830;50.656;7.568;2022-11-02T04:01:30;10.50;99.90
5617;DHT22;2830;50.656;7.568;2022-11-02T04:04:03;10.40;99.90
5617;DHT22;2830;50.656;7.568;2022-11-02T04:06:30;10.30;99.90
5617;DHT22;2830;50.656;7.568;2022-11-02T04:08:58;10.30;99.90
5617;DHT22;2830;50.656;7.568;2022-11-02T04:11:25;10.30;99.90
5617;DHT22;2830;50.656;7.568;2022-11-02T04:14:11;10.30;99.90
5617;DHT22;2830;50.656;7.568;2022-11-02T04:16:57;10.20;99.90
5617;DHT22;2830;50.656;7.568;2022-11-02T04:19:42;10.30;99.90
5617;DHT22;2830;50.656;7.568;2022-11-02T04:22:14;10.20;99.90
5617;DHT22;2830;50.656;7.568;2022-11-02T04:25:00;10.20;99.90
5617;DHT22;2830;50.656;7.568;2022-11-02T04:27:48;10.10;99.90
5617;DHT22;2830;50.656;7.568;2022-11-02T04:30:17;10.10;99.90
5617;DHT22;2830;50.656;7.568;2022-11-02T04:32:46;10.00;99.90
5617;DHT22;2830;50.656;7.568;2022-11-02T04:35:42;10.00;99.90
5617;DHT22;2830;50.656;7.568;2022-11-02T04:38:09;9.90;99.90
5617;DHT22;2830;50.656;7.568;2022-11-02T04:40:54;9.80;99.90
5617;DHT22;2830;50.656;7.568;2022-11-02T04:43:40;9.80;99.90
5617;DHT22;2830;50.656;7.568;2022-11-02T04:46:07;9.70;99.90
5617;DHT22;2830;50.656;7.568;2022-11-02T04:48:34;9.60;99.90
5617;DHT22;2830;50.656;7.568;2022-11-02T04:51:00;9.60;99.90
5617;DHT22;2830;50.656;7.568;2022-11-02T04:53:27;9.40;99.90
5617;DHT22;2830;50.656;7.568;2022-11-02T04:55:53;9.40;99.90
5617;DHT22;2830;50.656;7.568;2022-11-02T04:58:20;9.30;99.90
5617;DHT22;2830;50.656;7.568;2022-11-02T05:00:47;9.30;99.90
5617;DHT22;2830;50.656;7.568;2022-11-02T05:03:13;9.10;99.90
5617;DHT22;2830;50.656;7.568;2022-11-02T05:05:40;9.00;99.90
5617;DHT22;2830;50.656;7.568;2022-11-02T05:08:06;8.80;99.90
5617;DHT22;2830;50.656;7.568;2022-11-02T05:10:33;8.70;99.90
5617;DHT22;2830;50.656;7.568;2022-11-02T05:13:00;8.70;99.90
5617;DHT22;2830;50.656;7.568;2022-11-02T05:15:26;8.50;99.90
5617;DHT22;2830;50.656;7.568;2022-11-02T05:17:53;8.30;99.90
5617;DHT22;2830;50.656;7.568;2022-11-02T05:20:20;8.40;99.90
5617;DHT22;2830;50.656;7.568;2022-11-02T05:22:47;8.50;99.90
5617;DHT22;2830;50.656;7.568;2022-11-02T05:25:13;8.40;99.90
5617;DHT22;2830;50.656;7.568;2022-11-02T05:27:40;8.30;99.90
5617;DHT22;2830;50.656;7.568;2022-11-02T05:30:07;8.10;99.90
5617;DHT22;2830;50.656;7.568;2022-11-02T05:32:34;8.10;99.90
5617;DHT22;2830;50.656;7.568;2022-11-02T05:35:00;8.10;99.90
5617;DHT22;2830;50.656;7.568;2022-11-02T05:37:27;8.00;99.90
5617;DHT22;2830;50.656;7.568;2022-11-02T05:39:54;7.90;99.90
5617;DHT22;2830;50.656;7.568;2022-11-02T05:42:20;7.90;99.90
5617;DHT22;2830;50.656;7.568;2022-11-02T05:44:47;7.80;99.90
5617;DHT22;2830;50.656;7.568;2022-11-02T05:47:13;7.80;99.90
5617;DHT22;2830;50.656;7.568;2022-11-02T05:49:40;7.70;99.90
5617;DHT22;2830;50.656;7.568;2022-11-02T05:52:08;7.60;99.90
5617;DHT22;2830;50.656;7.568;2022-11-02T05:54:34;7.50;99.90
5617;DHT22;2830;50.656;7.568;2022-11-02T05:57:01;7.60;99.90
5617;DHT22;2830;50.656;7.568;2022-11-02T05:59:28;7.60;99.90
5617;DHT22;2830;50.656;7.568;2022-11-02T06:01:54;7.70;99.90
5617;DHT22;2830;50.656;7.568;2022-11-02T06:04:21;7.80;99.90
5617;DHT22;2830;50.656;7.568;2022-11-02T06:06:48;7.70;99.90
5617;DHT22;2830;50.656;7.568;2022-11-02T06:09:14;7.80;99.90
5617;DHT22;2830;50.656;7.568;2022-11-02T06:11:41;7.90;99.90
5617;DHT22;2830;50.656;7.568;2022-11-02T06:14:08;8.00;99.90
5617;DHT22;2830;50.656;7.568;2022-11-02T06:16:34;7.90;99.90
5617;DHT22;2830;50.656;7.568;2022-11-02T06:19:01;7.90;99.90
5617;DHT22;2830;50.656;7.568;2022-11-02T06:21:28;8.00;99.90
5617;DHT22;2830;50.656;7.568;2022-11-02T06:23:55;8.10;99.90
5617;DHT22;2830;50.656;7.568;2022-11-02T06:26:24;8.20;99.90
5617;DHT22;2830;50.656;7.568;2022-11-02T06:28:50;8.10;99.90
5617;DHT22;2830;50.656;7.568;2022-11-02T06:31:17;8.10;99.90
5617;DHT22;2830;50.656;7.568;2022-11-02T06:33:44;8.20;99.90
5617;DHT22;2830;50.656;7.568;2022-11-02T06:36:11;8.30;99.90
5617;DHT22;2830;50.656;7.568;2022-11-02T06:38:37;8.40;99.90
5617;DHT22;2830;50.656;7.568;2022-11-02T06:41:04;8.40;99.90
5617;DHT22;2830;50.656;7.568;2022-11-02T06:43:32;8.30;99.90
5617;DHT22;2830;50.656;7.568;2022-11-02T06:45:59;8.20;99.90
5617;DHT22;2830;50.656;7.568;2022-11-02T06:48:27;8.10;99.90
5617;DHT22;2830;50.656;7.568;2022-11-02T06:51:00;8.00;99.90
5617;DHT22;2830;50.656;7.568;2022-11-02T06:53:27;8.00;99.90
5617;DHT22;2830;50.656;7.568;2022-11-02T06:55:55;7.90;99.90
5617;DHT22;2830;50.656;7.568;2022-11-02T06:58:23;7.90;99.90
5617;DHT22;2830;50.656;7.568;2022-11-02T07:00:57;7.90;99.90
5617;DHT22;2830;50.656;7.568;2022-11-02T07:03:24;7.90;99.90
5617;DHT22;2830;50.656;7.568;2022-11-02T07:05:51;7.90;99.90
5617;DHT22;2830;50.656;7.568;2022-11-02T07:08:19;7.90;99.90
5617;DHT22;2830;50.656;7.568;2022-11-02T07:10:46;7.90;99.90
5617;DHT22;2830;50.656;7.568;2022-11-02T07:13:13;7.90;99.90
5617;DHT22;2830;50.656;7.568;2022-11-02T07:15:40;7.90;99.90
5617;DHT22;2830;50.656;7.568;2022-11-02T07:18:06;7.90;99.90
5617;DHT22;2830;50.656;7.568;2022-11-02T07:20:34;8.00;99.90
5617;DHT22;2830;50.656;7.568;2022-11-02T07:23:01;8.10;99.90
5617;DHT22;2830;50.656;7.568;2022-11-02T07:25:31;8.30;99.90
5617;DHT22;2830;50.656;7.568;2022-11-02T07:28:01;8.50;99.90
5617;DHT22;2830;50.656;7.568;2022-11-02T07:30:28;8.70;99.90
5617;DHT22;2830;50.656;7.568;2022-11-02T07:32:56;8.80;99.90
5617;DHT22;2830;50.656;7.568;2022-11-02T07:35:23;9.10;99.90
5617;DHT22;2830;50.656;7.568;2022-11-02T07:37:58;9.30;99.90
5617;DHT22;2830;50.656;7.568;2022-11-02T07:40:26;9.50;99.90
5617;DHT22;2830;50.656;7.568;2022-11-02T07:42:54;9.70;99.90
5617;DHT22;2830;50.656;7.568;2022-11-02T07:45:21;9.90;99.90
5617;DHT22;2830;50.656;7.568;2022-11-02T07:47:49;10.10;99.90
5617;DHT22;2830;50.656;7.568;2022-11-02T07:50:21;10.20;99.90
5617;DHT22;2830;50.656;7.568;2022-11-02T07:52:49;10.40;99.90
5617;DHT22;2830;50.656;7.568;2022-11-02T07:55:22;10.60;99.90
5617;DHT22;2830;50.656;7.568;2022-11-02T07:58:00;10.80;99.90
5617;DHT22;2830;50.656;7.568;2022-11-02T08:00:30;11.10;99.90
5617;DHT22;2830;50.656;7.568;2022-11-02T08:02:58;11.30;99.90
5617;DHT22;2830;50.656;7.568;2022-11-02T08:05:27;11.60;99.90
5617;DHT22;2830;50.656;7.568;2022-11-02T08:10:25;12.60;99.90
5617;DHT22;2830;50.656;7.568;2022-11-02T08:12:52;13.50;99.90
5617;DHT22;2830;50.656;7.568;2022-11-02T08:15:19;14.40;99.90
5617;DHT22;2830;50.656;7.568;2022-11-02T08:17:46;15.00;99.90
5617;DHT22;2830;50.656;7.568;2022-11-02T08:20:13;15.90;99.90
5617;DHT22;2830;50.656;7.568;2022-11-02T08:22:40;16.70;99.90
5617;DHT22;2830;50.656;7.568;2022-11-02T08:25:08;17.00;99.90
5617;DHT22;2830;50.656;7.568;2022-11-02T08:27:35;17.20;99.90
5617;DHT22;2830;50.656;7.568;2022-11-02T08:30:02;17.50;99.90
5617;DHT22;2830;50.656;7.568;2022-11-02T08:32:29;17.60;99.90
5617;DHT22;2830;50.656;7.568;2022-11-02T08:34:56;17.70;99.90
5617;DHT22;2830;50.656;7.568;2022-11-02T08:37:23;18.40;99.90
5617;DHT22;2830;50.656;7.568;2022-11-02T08:39:49;18.60;99.90
5617;DHT22;2830;50.656;7.568;2022-11-02T08:42:16;18.90;99.90
5617;DHT22;2830;50.656;7.568;2022-11-02T08:44:42;18.30;99.90
5617;DHT22;2830;50.656;7.568;2022-11-02T08:47:09;18.30;99.90
5617;DHT22;2830;50.656;7.568;2022-11-02T08:49:36;18.00;99.90
5617;DHT22;2830;50.656;7.568;2022-11-02T08:52:02;18.10;99.90
5617;DHT22;2830;50.656;7.568;2022-11-02T08:54:29;18.80;99.90
5617;DHT22;2830;50.656;7.568;2022-11-02T08:56:56;18.00;99.90
5617;DHT22;2830;50.656;7.568;2022-11-02T08:59:23;17.00;99.90
5617;DHT22;2830;50.656;7.568;2022-11-02T09:01:49;16.30;99.90
5617;DHT22;2830;50.656;7.568;2022-11-02T09:04:16;16.00;99.90
5617;DHT22;2830;50.656;7.568;2022-11-02T09:06:43;15.70;99.90
5617;DHT22;2830;50.656;7.568;2022-11-02T09:09:09;15.30;99.90
5617;DHT22;2830;50.656;7.568;2022-11-02T09:11:37;15.00;99.90
5617;DHT22;2830;50.656;7.568;2022-11-02T09:14:03;14.70;99.90
5617;DHT22;2830;50.656;7.568;2022-11-02T09:16:30;14.30;99.90
5617;DHT22;2830;50.656;7.568;2022-11-02T09:18:57;14.20;99.90
5617;DHT22;2830;50.656;7.568;2022-11-02T09:21:24;14.40;99.90
5617;DHT22;2830;50.656;7.568;2022-11-02T09:23:50;14.60;99.90
5617;DHT22;2830;50.656;7.568;2022-11-02T09:26:17;14.60;99.90
5617;DHT22;2830;50.656;7.568;2022-11-02T09:28:44;14.60;99.90
5617;DHT22;2830;50.656;7.568;2022-11-02T09:31:10;14.60;99.90
5617;DHT22;2830;50.656;7.568;2022-11-02T09:33:37;14.60;99.90
5617;DHT22;2830;50.656;7.568;2022-11-02T09:36:04;14.80;99.90
5617;DHT22;2830;50.656;7.568;2022-11-02T09:38:31;14.90;99.90
5617;DHT22;2830;50.656;7.568;2022-11-02T09:46:07;15.40;99.90
5617;DHT22;2830;50.656;7.568;2022-11-02T09:48:45;15.30;99.90
5617;DHT22;2830;50.656;7.568;2022-11-02T09:51:18;15.30;99.90
5617;DHT22;2830;50.656;7.568;2022-11-02T09:56:13;15.30;99.90
5617;DHT22;2830;50.656;7.568;2022-11-02T09:58:42;15.10;99.90
5617;DHT22;2830;50.656;7.568;2022-11-02T10:06:43;16.10;99.90
5617;DHT22;2830;50.656;7.568;2022-11-02T10:09:18;17.30;99.90
5617;DHT22;2830;50.656;7.568;2022-11-02T10:12:01;18.00;99.90
5617;DHT22;2830;50.656;7.568;2022-11-02T10:14:54;19.00;99.90
5617;DHT22;2830;50.656;7.568;2022-11-02T10:17:25;20.00;99.90
5617;DHT22;2830;50.656;7.568;2022-11-02T10:19:58;20.50;99.90
5617;DHT22;2830;50.656;7.568;2022-11-02T10:22:31;21.00;99.90
5617;DHT22;2830;50.656;7.568;2022-11-02T10:24:59;21.80;99.90
5617;DHT22;2830;50.656;7.568;2022-11-02T10:27:31;22.90;98.60
5617;DHT22;2830;50.656;7.568;2022-11-02T10:30:19;22.60;97.90
5617;DHT22;2830;50.656;7.568;2022-11-02T10:32:49;23.10;97.20
5617;DHT22;2830;50.656;7.568;2022-11-02T10:35:32;22.60;95.50
5617;DHT22;2830;50.656;7.568;2022-11-02T10:41:19;21.20;94.60
5617;DHT22;2830;50.656;7.568;2022-11-02T10:44:07;20.60;95.80
5617;DHT22;2830;50.656;7.568;2022-11-02T10:51:57;22.10;94.40
5617;DHT22;2830;50.656;7.568;2022-11-02T10:54:25;21.20;93.40
5617;DHT22;2830;50.656;7.568;2022-11-02T10:57:08;19.80;94.70
5617;DHT22;2830;50.656;7.568;2022-11-02T10:59:37;19.20;95.30
5617;DHT22;2830;50.656;7.568;2022-11-02T11:02:10;20.30;95.90
5617;DHT22;2830;50.656;7.568;2022-11-02T11:04:37;19.50;96.10
5617;DHT22;2830;50.656;7.568;2022-11-02T11:07:11;19.50;96.10
5617;DHT22;2830;50.656;7.568;2022-11-02T11:09:55;19.60;96.30
5617;DHT22;2830;50.656;7.568;2022-11-02T11:12:30;19.50;95.20
5617;DHT22;2830;50.656;7.568;2022-11-02T11:14:59;20.00;95.80
5617;DHT22;2830;50.656;7.568;2022-11-02T11:17:48;21.10;96.10
5617;DHT22;2830;50.656;7.568;2022-11-02T11:20:38;23.10;95.80
5617;DHT22;2830;50.656;7.568;2022-11-02T11:23:15;23.80;94.20
5617;DHT22;2830;50.656;7.568;2022-11-02T11:25:42;23.40;93.50
5617;DHT22;2830;50.656;7.568;2022-11-02T11:28:33;22.50;94.10
5617;DHT22;2830;50.656;7.568;2022-11-02T11:31:15;20.80;94.00
5617;DHT22;2830;50.656;7.568;2022-11-02T11:33:48;20.80;94.40
5617;DHT22;2830;50.656;7.568;2022-11-02T11:36:27;21.20;93.60
5617;DHT22;2830;50.656;7.568;2022-11-02T11:39:01;19.90;93.80
5617;DHT22;2830;50.656;7.568;2022-11-02T11:41:29;18.60;95.50
5617;DHT22;2830;50.656;7.568;2022-11-02T11:43:57;17.90;96.60
5617;DHT22;2830;50.656;7.568;2022-11-02T11:46:37;17.40;97.30
5617;DHT22;2830;50.656;7.568;2022-11-02T11:49:11;17.00;98.90
5617;DHT22;2830;50.656;7.568;2022-11-02T11:51:48;16.60;99.90
5617;DHT22;2830;50.656;7.568;2022-11-02T11:54:24;16.30;99.90
5617;DHT22;2830;50.656;7.568;2022-11-02T11:56:56;16.20;99.90
5617;DHT22;2830;50.656;7.568;2022-11-02T11:59:29;16.20;99.90
5617;DHT22;2830;50.656;7.568;2022-11-02T12:01:59;16.30;99.90
5617;DHT22;2830;50.656;7.568;2022-11-02T12:04:34;16.30;99.90
5617;DHT22;2830;50.656;7.568;2022-11-02T12:15:41;17.80;99.90
5617;DHT22;2830;50.656;7.568;2022-11-02T12:29:39;24.50;95.20
5617;DHT22;2830;50.656;7.568;2022-11-02T12:40:58;24.40;92.40
5617;DHT22;2830;50.656;7.568;2022-11-02T12:43:45;23.70;91.30
5617;DHT22;2830;50.656;7.568;2022-11-02T12:49:25;22.90;91.80
5617;DHT22;2830;50.656;7.568;2022-11-02T12:52:05;22.90;93.90
5617;DHT22;2830;50.656;7.568;2022-11-02T12:54:46;23.00;92.70
5617;DHT22;2830;50.656;7.568;2022-11-02T12:57:16;22.90;93.40
5617;DHT22;2830;50.656;7.568;2022-11-02T12:59:46;21.50;93.20
5617;DHT22;2830;50.656;7.568;2022-11-02T13:05:12;18.60;94.40
5617;DHT22;2830;50.656;7.568;2022-11-02T13:07:54;18.10;95.40
5617;DHT22;2830;50.656;7.568;2022-11-02T13:10:34;18.70;96.20
5617;DHT22;2830;50.656;7.568;2022-11-02T13:13:02;20.20;95.30
5617;DHT22;2830;50.656;7.568;2022-11-02T13:15:33;20.80;95.10
5617;DHT22;2830;50.656;7.568;2022-11-02T13:18:08;21.20;94.50
5617;DHT22;2830;50.656;7.568;2022-11-02T13:20:51;21.40;93.00
5617;DHT22;2830;50.656;7.568;2022-11-02T13:26:41;20.90;93.20
5617;DHT22;2830;50.656;7.568;2022-11-02T13:29:20;19.70;92.80
5617;DHT22;2830;50.656;7.568;2022-11-02T13:31:52;18.20;94.20
5617;DHT22;2830;50.656;7.568;2022-11-02T13:34:42;17.40;95.50
5617;DHT22;2830;50.656;7.568;2022-11-02T13:37:32;16.80;96.10
5617;DHT22;2830;50.656;7.568;2022-11-02T13:40:21;16.60;96.90
5617;DHT22;2830;50.656;7.568;2022-11-02T13:43:14;16.50;97.90
5617;DHT22;2830;50.656;7.568;2022-11-02T13:46:06;16.70;97.80
5617;DHT22;2830;50.656;7.568;2022-11-02T13:48:39;16.90;98.80
5617;DHT22;2830;50.656;7.568;2022-11-02T13:52:02;17.30;98.60
5617;DHT22;2830;50.656;7.568;2022-11-02T13:54:20;17.50;97.90
5617;DHT22;2830;50.656;7.568;2022-11-02T13:56:54;17.60;97.60
5617;DHT22;2830;50.656;7.568;2022-11-02T13:59:26;17.10;96.20
5617;DHT22;2830;50.656;7.568;2022-11-02T14:01:54;16.70;97.50
5617;DHT22;2830;50.656;7.568;2022-11-02T14:04:22;16.40;97.50
5617;DHT22;2830;50.656;7.568;2022-11-02T14:06:59;16.00;97.40
5617;DHT22;2830;50.656;7.568;2022-11-02T14:14:44;15.30;98.50
5617;DHT22;2830;50.656;7.568;2022-11-02T14:17:15;15.10;99.30
5617;DHT22;2830;50.656;7.568;2022-11-02T14:22:12;15.00;99.90
5617;DHT22;2830;50.656;7.568;2022-11-02T14:38:09;15.00;99.90
5617;DHT22;2830;50.656;7.568;2022-11-02T14:43:43;14.80;99.90
5617;DHT22;2830;50.656;7.568;2022-11-02T14:49:01;14.50;99.90
5617;DHT22;2830;50.656;7.568;2022-11-02T14:51:35;14.40;99.90
5617;DHT22;2830;50.656;7.568;2022-11-02T14:54:07;14.40;99.90
5617;DHT22;2830;50.656;7.568;2022-11-02T14:59:22;14.30;99.90
5617;DHT22;2830;50.656;7.568;2022-11-02T15:04:25;14.20;99.90
5617;DHT22;2830;50.656;7.568;2022-11-02T15:06:56;14.20;99.90
5617;DHT22;2830;50.656;7.568;2022-11-02T15:12:42;14.00;99.90
5617;DHT22;2830;50.656;7.568;2022-11-02T15:15:29;13.90;99.90
5617;DHT22;2830;50.656;7.568;2022-11-02T15:20:44;13.70;99.90
5617;DHT22;2830;50.656;7.568;2022-11-02T15:23:30;13.60;99.90
5617;DHT22;2830;50.656;7.568;2022-11-02T15:26:04;13.50;99.90
5617;DHT22;2830;50.656;7.568;2022-11-02T15:28:32;13.40;99.90
5617;DHT22;2830;50.656;7.568;2022-11-02T15:31:05;13.40;99.90
5617;DHT22;2830;50.656;7.568;2022-11-02T15:33:42;13.30;99.90
5617;DHT22;2830;50.656;7.568;2022-11-02T15:36:19;13.20;99.90
5617;DHT22;2830;50.656;7.568;2022-11-02T15:38:48;13.00;99.90
5617;DHT22;2830;50.656;7.568;2022-11-02T15:59:17;12.40;99.90
5617;DHT22;2830;50.656;7.568;2022-11-02T16:01:44;12.30;99.90
5617;DHT22;2830;50.656;7.568;2022-11-02T16:04:18;12.10;99.90
5617;DHT22;2830;50.656;7.568;2022-11-02T16:06:45;12.10;99.90
5617;DHT22;2830;50.656;7.568;2022-11-02T16:09:34;12.00;99.90
5617;DHT22;2830;50.656;7.568;2022-11-02T16:14:29;11.80;99.90
5617;DHT22;2830;50.656;7.568;2022-11-02T16:16:57;11.70;99.90
5617;DHT22;2830;50.656;7.568;2022-11-02T16:19:24;11.60;99.90
5617;DHT22;2830;50.656;7.568;2022-11-02T16:21:50;11.50;99.90
5617;DHT22;2830;50.656;7.568;2022-11-02T16:24:22;11.40;99.90
5617;DHT22;2830;50.656;7.568;2022-11-02T16:26:49;11.30;99.90
5617;DHT22;2830;50.656;7.568;2022-11-02T16:29:36;11.00;99.90
5617;DHT22;2830;50.656;7.568;2022-11-02T16:32:10;10.80;99.90
5617;DHT22;2830;50.656;7.568;2022-11-02T16:34:38;10.70;99.90
5617;DHT22;2830;50.656;7.568;2022-11-02T16:37:05;10.60;99.90
5617;DHT22;2830;50.656;7.568;2022-11-02T16:39:36;10.50;99.90
5617;DHT22;2830;50.656;7.568;2022-11-02T16:42:13;10.30;99.90
5617;DHT22;2830;50.656;7.568;2022-11-02T16:44:40;10.20;99.90
5617;DHT22;2830;50.656;7.568;2022-11-02T16:49:56;9.80;99.90
5617;DHT22;2830;50.656;7.568;2022-11-02T16:52:28;9.70;99.90
5617;DHT22;2830;50.656;7.568;2022-11-02T16:54:55;9.60;99.90
5617;DHT22;2830;50.656;7.568;2022-11-02T16:57:25;9.50;99.90
5617;DHT22;2830;50.656;7.568;2022-11-02T16:59:53;9.40;99.90
5617;DHT22;2830;50.656;7.568;2022-11-02T17:02:36;9.40;99.90
5617;DHT22;2830;50.656;7.568;2022-11-02T17:05:06;9.20;99.90
5617;DHT22;2830;50.656;7.568;2022-11-02T17:07:48;9.20;99.90
5617;DHT22;2830;50.656;7.568;2022-11-02T17:10:27;9.10;99.90
5617;DHT22;2830;50.656;7.568;2022-11-02T17:12:55;9.00;99.90
5617;DHT22;2830;50.656;7.568;2022-11-02T17:15:29;8.90;99.90
5617;DHT22;2830;50.656;7.568;2022-11-02T17:20:48;8.70;99.90
5617;DHT22;2830;50.656;7.568;2022-11-02T17:23:35;8.60;99.90
5617;DHT22;2830;50.656;7.568;2022-11-02T17:26:25;8.50;99.90
5617;DHT22;2830;50.656;7.568;2022-11-02T17:33:52;8.30;99.90
5617;DHT22;2830;50.656;7.568;2022-11-02T17:36:19;8.10;99.90
5617;DHT22;2830;50.656;7.568;2022-11-02T17:38:47;8.00;99.90
5617;DHT22;2830;50.656;7.568;2022-11-02T17:41:17;8.00;99.90
5617;DHT22;2830;50.656;7.568;2022-11-02T17:44:15;7.90;99.90
5617;DHT22;2830;50.656;7.568;2022-11-02T17:46:42;7.80;99.90
5617;DHT22;2830;50.656;7.568;2022-11-02T17:49:11;7.70;99.90
5617;DHT22;2830;50.656;7.568;2022-11-02T17:51:38;7.60;99.90
5617;DHT22;2830;50.656;7.568;2022-11-02T17:54:07;7.60;99.90
5617;DHT22;2830;50.656;7.568;2022-11-02T17:56:34;7.60;99.90
5617;DHT22;2830;50.656;7.568;2022-11-02T17:59:00;7.50;99.90
5617;DHT22;2830;50.656;7.568;2022-11-02T18:01:27;7.50;99.90
5617;DHT22;2830;50.656;7.568;2022-11-02T18:03:54;7.40;99.90
5617;DHT22;2830;50.656;7.568;2022-11-02T18:06:21;7.30;99.90
5617;DHT22;2830;50.656;7.568;2022-11-02T18:08:48;7.30;99.90
5617;DHT22;2830;50.656;7.568;2022-11-02T18:11:33;7.20;99.90
5617;DHT22;2830;50.656;7.568;2022-11-02T18:14:00;7.10;99.90
5617;DHT22;2830;50.656;7.568;2022-11-02T18:16:27;7.10;99.90
5617;DHT22;2830;50.656;7.568;2022-11-02T18:18:54;7.00;99.90
5617;DHT22;2830;50.656;7.568;2022-11-02T18:21:20;7.00;99.90
5617;DHT22;2830;50.656;7.568;2022-11-02T18:23:47;7.00;99.90
5617;DHT22;2830;50.656;7.568;2022-11-02T18:26:14;7.00;99.90
5617;DHT22;2830;50.656;7.568;2022-11-02T18:28:41;6.90;99.90
5617;DHT22;2830;50.656;7.568;2022-11-02T18:31:07;6.80;99.90
5617;DHT22;2830;50.656;7.568;2022-11-02T18:33:34;6.80;99.90
5617;DHT22;2830;50.656;7.568;2022-11-02T18:36:03;6.70;99.90
5617;DHT22;2830;50.656;7.568;2022-11-02T18:38:29;6.60;99.90
5617;DHT22;2830;50.656;7.568;2022-11-02T18:41:02;6.60;99.90
5617;DHT22;2830;50.656;7.568;2022-11-02T18:43:30;6.50;99.90
5617;DHT22;2830;50.656;7.568;2022-11-02T18:45:59;6.40;99.90
5617;DHT22;2830;50.656;7.568;2022-11-02T18:48:26;6.30;99.90
5617;DHT22;2830;50.656;7.568;2022-11-02T18:50:52;6.30;99.90
5617;DHT22;2830;50.656;7.568;2022-11-02T18:53:19;6.40;99.90
5617;DHT22;2830;50.656;7.568;2022-11-02T18:55:45;6.20;99.90
5617;DHT22;2830;50.656;7.568;2022-11-02T18:58:12;6.20;99.90
5617;DHT22;2830;50.656;7.568;2022-11-02T19:00:39;6.20;99.90
5617;DHT22;2830;50.656;7.568;2022-11-02T19:03:09;6.00;99.90
5617;DHT22;2830;50.656;7.568;2022-11-02T19:05:35;6.00;99.90
5617;DHT22;2830;50.656;7.568;2022-11-02T19:08:20;5.90;99.90